Amboy, IL (61310)

5:25 PM CDT on July 27, 2017 (GMT -0500)
Lee Co EMA Amboy Site | | Change Station

Elev 765 ft 41.71 °N, 89.32 °W | Updated 31 days ago

Clear
Clear
62.3 °F
Feels Like 62.3 °F
N
8.0
Wind Variable Wind from WSW
Gusts 12.0 mph

Today
High -- | Low -- °F
--% Chance of Precip.
Yesterday
High -- | Low -- °F
Precip. -- in
Pressure 29.97 in
Visibility 10.0 miles
Clouds Few 4000 ft
Dew Point 50 °F
Humidity 65%
Rainfall 0.64 in
Snow Depth Not available.
5:46 AM 8:20 PM
Waxing Crescent, 24% visible
METAR KSQI 272156Z 04011KT 10SM FEW040 28/20 A2994 RMK AO2 SLP147 T02830200
Pressure 29.97 in
Visibility 10.0 miles
Clouds Few 4000 ft
Dew Point 50 °F
Humidity 65%
Rainfall 0.64 in
Snow Depth Not available.
5:46 AM 8:20 PM
Waxing Crescent, 24% visible
METAR KSQI 272156Z 04011KT 10SM FEW040 28/20 A2994 RMK AO2 SLP147 T02830200

Get Severe Weather Alerts

Thanks for signing up!

Be on the lookout for a verification email in your inbox.

You'll start receiving the daily forecast at 6 AM.

×

10-Day Weather Forecast

Almanac

Astronomy

Jul. 27, 2017 Rise Set
Actual Time
Civil Twilight
Nautical Twilight
Astronomical Twilight
Moon
Length of Visible Light
Length of Day
Tomorrow will be .
, % of the Moon is Illuminated

Today's Extremes

State Highs State Lows

Community

WunderPhotos

Category 6

Welcome to Category 6. This is the collective home for Weather Underground's featured writeups by Dr. Jeff Masters (right), Bob Henson (left), Chris Burt, and other regular contributors.

Nearby

Air Quality

  Air Quality AQ Index Pollutant
Not available.

Snow Depth

Station Depth Elevation

Earthquake Activity

City Distance Mag. Time & Date
Minimum magnitude displayed is 2.5.

Coastal Water Temperatures

Place Temperature

Stations

Nearby Weather Stations

Station Location Temp. Windchill Dew Point Humidity Wind Precip. Elev Updated Type
                   

Watches & Warnings

There are currently no watches in effect.